Time;durP1;ratioP1;P1;durP2;ratioP2;P2;SDS_P1;SDS_P2;PMS_P1;PMS_P2;Temp;Humidity;BMP_temperature;BMP_pressure;BME280_temperature;BME280_humidity;BME280_pressure;Samples;Min_cycle;Max_cycle;Signal;HPM_P1;HPM_P2
2022/06/28 04:07:12;;;;;;;3.17;2.97;;;;;;;22.95;59.79;100589.06;5244633;33;32796;-89
2022/06/28 04:10:16;;;;;;;3.50;3.20;;;;;;;23.05;59.55;100595.53;5260654;33;34454;-89
2022/06/28 04:13:19;;;;;;;3.58;3.15;;;;;;;23.23;58.62;100601.78;5254275;33;34074;-86
2022/06/28 04:16:23;;;;;;;4.72;2.87;;;;;;;23.37;58.20;100605.81;5253877;33;34033;-86
2022/06/28 04:19:26;;;;;;;3.03;2.80;;;;;;;23.58;57.36;100601.34;5254214;33;33678;-86
2022/06/28 04:22:29;;;;;;;5.03;3.03;;;;;;;23.78;56.44;100598.03;5257239;33;33678;-86
2022/06/28 04:25:32;;;;;;;3.20;2.58;;;;;;;23.94;55.87;100587.97;5256284;33;33796;-85
2022/06/28 04:28:35;;;;;;;3.97;2.60;;;;;;;24.10;54.96;100595.28;5259969;33;35102;-88
2022/06/28 04:31:38;;;;;;;3.30;2.37;;;;;;;24.29;53.69;100594.88;5256934;33;33663;-88
2022/06/28 04:34:43;;;;;;;3.95;2.72;;;;;;;24.53;53.27;100596.16;5257870;33;33694;-87
2022/06/28 04:37:45;;;;;;;2.90;2.65;;;;;;;24.89;52.59;100593.59;5255009;33;34086;-87
2022/06/28 04:40:49;;;;;;;4.40;2.87;;;;;;;25.11;51.49;100586.00;5257682;33;34486;-88
2022/06/28 04:43:53;;;;;;;3.15;2.67;;;;;;;25.40;50.62;100579.25;5256619;33;33554;-88
2022/06/28 04:46:56;;;;;;;3.78;2.60;;;;;;;25.87;49.14;100581.00;5257601;33;34840;-87
2022/06/28 04:49:59;;;;;;;5.15;2.87;;;;;;;26.06;47.34;100592.31;5256588;33;35041;-88
2022/06/28 04:53:02;;;;;;;2.80;2.60;;;;;;;26.16;48.00;100589.56;5256470;33;34424;-88
2022/06/28 04:56:07;;;;;;;2.90;2.70;;;;;;;26.46;47.30;100605.25;5261335;33;34150;-87
2022/06/28 04:59:14;;;;;;;2.42;2.15;;;;;;;26.45;47.16;100622.94;5263136;33;34580;-87
2022/06/28 05:02:19;;;;;;;4.05;2.70;;;;;;;26.36;46.87;100644.78;5257520;33;34613;-87
2022/06/28 05:05:22;;;;;;;2.95;2.35;;;;;;;26.33;46.98;100672.09;5256246;33;33974;-88
2022/06/28 05:08:25;;;;;;;2.72;2.53;;;;;;;25.98;48.15;100666.28;5256056;33;34884;-88
2022/06/28 05:11:29;;;;;;;6.00;2.72;;;;;;;25.86;46.99;100667.59;5256580;33;33515;-88
2022/06/28 05:14:32;;;;;;;3.60;2.37;;;;;;;25.76;47.47;100668.38;5256827;33;34147;-87
2022/06/28 05:17:35;;;;;;;2.70;2.50;;;;;;;25.72;47.95;100683.84;5257216;33;34218;-87
2022/06/28 05:20:38;;;;;;;2.50;2.30;;;;;;;25.70;48.17;100686.84;5256421;33;34071;-87
2022/06/28 05:23:41;;;;;;;2.80;2.30;;;;;;;25.70;48.52;100680.50;5256201;33;34258;-88
2022/06/28 05:26:45;;;;;;;2.80;2.60;;;;;;;25.75;48.87;100673.09;5256360;33;34159;-86
2022/06/28 05:29:48;;;;;;;2.97;2.67;;;;;;;25.74;47.62;100700.91;5255596;33;34138;-86
2022/06/28 05:32:53;;;;;;;7.50;2.50;;;;;;;25.76;47.69;100726.31;5256301;33;33654;-86
2022/06/28 05:35:56;;;;;;;5.82;2.85;;;;;;;25.79;48.77;100725.75;5255966;33;34879;-85
2022/06/28 05:38:59;;;;;;;3.60;2.70;;;;;;;25.48;51.29;100741.38;5254910;33;33559;-85
2022/06/28 05:42:02;;;;;;;7.55;3.15;;;;;;;25.26;53.98;100716.72;5256025;33;34880;-85
2022/06/28 05:45:05;;;;;;;4.25;2.72;;;;;;;25.00;54.89;100708.25;5256543;33;33901;-86
2022/06/28 05:48:08;;;;;;;2.90;2.70;;;;;;;24.88;56.92;100718.66;5256657;33;34025;-85
2022/06/28 05:51:11;;;;;;;3.90;2.70;;;;;;;24.76;58.32;100726.28;5255674;33;34414;-85
2022/06/28 05:54:14;;;;;;;2.95;2.60;;;;;;;24.65;59.03;100723.44;5256122;33;32518;-85
2022/06/28 05:57:17;;;;;;;3.97;3.00;;;;;;;24.62;59.70;100707.44;5259606;33;35444;-85
2022/06/28 06:00:19;;;;;;;5.22;3.10;;;;;;;24.45;62.93;100670.97;5255551;33;35545;-85
2022/06/28 06:03:23;;;;;;;4.28;2.97;;;;;;;23.09;74.03;100639.78;5252771;33;33771;-85
2022/06/28 06:06:25;;;;;;;4.43;2.92;;;;;;;21.83;85.78;100610.88;5253407;33;35004;-85
2022/06/28 06:09:28;;;;;;;4.57;3.10;;;;;;;21.31;93.86;100561.66;5247998;33;33718;-85
2022/06/28 06:12:31;;;;;;;6.32;3.35;;;;;;;20.92;93.32;100538.72;5255207;33;33665;-85
2022/06/28 06:15:34;;;;;;;3.08;2.53;;;;;;;20.83;94.42;100524.56;5253094;33;34553;-85
2022/06/28 06:18:37;;;;;;;4.85;2.78;;;;;;;20.76;93.76;100516.47;5244209;33;34399;-89
2022/06/28 06:21:40;;;;;;;5.68;3.40;;;;;;;20.90;92.54;100522.50;5244806;33;34466;-89
2022/06/28 06:24:42;;;;;;;5.03;3.53;;;;;;;20.96;94.09;100542.59;5256654;33;34694;-89
2022/06/28 06:27:47;;;;;;;3.75;3.30;;;;;;;21.10;98.37;100537.69;5257026;33;32553;-89
2022/06/28 06:30:50;;;;;;;6.32;3.58;;;;;;;21.24;95.05;100577.41;5260343;33;34616;-85
2022/06/28 06:33:53;;;;;;;4.95;3.40;;;;;;;21.26;97.35;100608.94;5255210;33;34181;-85
2022/06/28 06:36:57;;;;;;;8.40;3.60;;;;;;;21.24;99.61;100591.91;5245691;33;34400;-85
2022/06/28 06:39:59;;;;;;;6.60;3.78;;;;;;;21.28;98.26;100587.62;5267294;33;33108;-85
2022/06/28 06:43:03;;;;;;;8.48;3.30;;;;;;;21.31;100.00;100578.09;5255841;33;35395;-85
2022/06/28 06:46:08;;;;;;;4.90;3.40;;;;;;;21.23;97.88;100571.06;5261875;33;33877;-85
2022/06/28 06:49:14;;;;;;;5.03;3.50;;;;;;;21.18;99.68;100586.59;5273645;33;35442;-85
2022/06/28 06:52:18;;;;;;;6.00;3.45;;;;;;;21.03;100.00;100571.53;5263899;33;34941;-85
2022/06/28 06:55:21;;;;;;;7.65;3.70;;;;;;;20.90;100.00;100576.41;5256079;33;33591;-85
2022/06/28 06:58:25;;;;;;;4.30;3.30;;;;;;;20.84;100.00;100600.09;5257248;33;35118;-85
2022/06/28 07:01:29;;;;;;;6.65;3.35;;;;;;;20.83;100.00;100580.13;5256420;33;34019;-84
2022/06/28 07:04:48;;;;;;;7.25;3.55;;;;;;;20.73;100.00;100568.94;5257283;33;34151;-85
2022/06/28 07:07:51;;;;;;;5.57;3.62;;;;;;;20.72;100.00;100575.50;5237977;34;34528;-85
2022/06/28 07:10:56;;;;;;;5.53;3.35;;;;;;;20.84;100.00;100583.69;5223055;34;32216;-84
2022/06/28 07:14:01;;;;;;;5.45;3.35;;;;;;;20.91;100.00;100559.75;5236932;34;35355;-85
2022/06/28 07:17:04;;;;;;;10.25;3.17;;;;;;;20.96;100.00;100537.97;5223076;34;34905;-84
2022/06/28 07:20:07;;;;;;;5.62;2.53;;;;;;;20.89;100.00;100496.22;5231421;33;33120;-85
2022/06/28 07:23:10;;;;;;;4.70;3.15;;;;;;;20.70;100.00;100498.28;5254091;33;33367;-84
2022/06/28 07:26:18;;;;;;;5.03;3.60;;;;;;;20.67;100.00;100509.72;5253936;33;33717;-85
2022/06/28 07:29:21;;;;;;;4.55;3.30;;;;;;;20.86;100.00;100523.25;5247092;33;35134;-85
2022/06/28 07:32:24;;;;;;;7.25;3.42;;;;;;;21.10;100.00;100529.47;5237336;33;35200;-85
2022/06/28 07:35:27;;;;;;;6.18;3.85;;;;;;;21.31;100.00;100539.75;5253572;33;33898;-85
2022/06/28 07:38:30;;;;;;;5.60;3.28;;;;;;;21.62;100.00;100530.22;5254238;33;34015;-85
2022/06/28 07:41:37;;;;;;;7.28;4.37;;;;;;;21.93;100.00;100531.53;5249664;33;32788;-85
2022/06/28 07:44:42;;;;;;;6.03;3.80;;;;;;;22.34;100.00;100543.16;5231739;33;32097;-85
2022/06/28 07:47:47;;;;;;;8.57;3.30;;;;;;;22.58;99.00;100548.44;5236577;33;33632;-85
2022/06/28 07:54:12;;;;;;;6.65;2.90;;;;;;;22.82;89.92;100565.53;5234617;33;33718;-86
2022/06/28 07:57:16;;;;;;;5.68;2.87;;;;;;;22.95;90.84;100558.84;5229099;34;34417;-89
2022/06/28 08:00:21;;;;;;;10.90;3.90;;;;;;;23.03;91.86;100572.16;5234497;34;34364;-90
2022/06/28 08:03:28;;;;;;;;;;;;;;;22.98;93.16;100585.81;5236544;34;33689;-87
2022/06/28 08:06:30;;;;;;;4.12;3.03;;;;;;;23.03;93.61;100605.09;5260144;33;34984;-86
2022/06/28 08:09:33;;;;;;;7.37;2.97;;;;;;;23.10;94.27;100619.47;5265374;33;33870;-85
2022/06/28 08:12:37;;;;;;;5.12;2.70;;;;;;;23.13;91.11;100618.94;5261841;33;34172;-85
2022/06/28 08:15:41;;;;;;;4.35;2.62;;;;;;;23.18;88.03;100616.28;5253697;33;34390;-85
2022/06/28 08:18:44;;;;;;;3.40;2.28;;;;;;;23.23;87.61;100616.34;5256490;33;34222;-85
2022/06/28 08:21:53;;;;;;;3.58;2.65;;;;;;;23.31;88.67;100620.53;5249857;33;34516;-85
2022/06/28 08:24:55;;;;;;;4.00;2.92;;;;;;;23.38;87.70;100628.59;5255270;33;33565;-85
2022/06/28 08:27:58;;;;;;;3.95;3.22;;;;;;;23.53;87.81;100631.53;5256354;33;33957;-85
2022/06/28 08:31:01;;;;;;;4.18;2.85;;;;;;;23.63;87.28;100626.13;5254824;33;33814;-85
2022/06/28 08:34:05;;;;;;;4.35;2.70;;;;;;;23.70;86.49;100634.22;5250507;33;34784;-85
2022/06/28 08:37:07;;;;;;;5.87;2.75;;;;;;;23.90;86.56;100628.94;5252458;33;35056;-85
2022/06/28 08:40:11;;;;;;;2.60;2.40;;;;;;;23.94;84.98;100634.72;5251473;33;33797;-85
2022/06/28 08:43:13;;;;;;;2.58;2.08;;;;;;;24.04;82.68;100648.56;5253591;33;34010;-84
2022/06/28 08:46:16;;;;;;;2.83;2.30;;;;;;;24.14;78.57;100643.16;5250881;33;33845;-85
2022/06/28 08:49:27;;;;;;;4.18;2.17;;;;;;;24.27;79.24;100649.31;5279739;28;32552;-85
2022/06/28 08:52:34;;;;;;;2.30;2.10;;;;;;;24.52;75.96;100649.56;5325380;33;33678;-85
2022/06/28 08:55:37;;;;;;;3.80;2.17;;;;;;;24.63;74.21;100661.50;5325135;33;34486;-85
2022/06/28 08:58:42;;;;;;;2.40;2.20;;;;;;;24.45;74.87;100657.19;5317166;33;33507;-84
2022/06/28 09:01:45;;;;;;;5.43;2.40;;;;;;;24.48;76.29;100650.34;5326183;33;34248;-84
2022/06/28 09:04:51;;;;;;;4.45;2.40;;;;;;;24.63;77.07;100651.31;5324065;33;33290;-85
2022/06/28 09:07:55;;;;;;;4.82;2.30;;;;;;;24.87;77.27;100653.66;5318974;33;34376;-85
2022/06/28 09:10:58;;;;;;;3.75;2.60;;;;;;;25.16;72.58;100658.81;5310558;33;33928;-85
2022/06/28 09:14:01;;;;;;;5.03;2.37;;;;;;;25.36;74.60;100656.16;5320020;33;34816;-85
2022/06/28 09:17:31;;;;;;;4.85;2.97;;;;;;;25.46;72.98;100658.94;5318365;33;33919;-85
2022/06/28 09:20:38;;;;;;;6.72;2.45;;;;;;;25.47;73.10;100655.06;5305196;33;32733;-85
2022/06/28 09:23:44;;;;;;;2.95;2.75;;;;;;;25.73;73.42;100666.19;5319204;33;34705;-85
2022/06/28 09:26:46;;;;;;;5.00;2.30;;;;;;;25.99;71.85;100656.06;5311945;33;32762;-85
2022/06/28 09:29:50;;;;;;;3.75;2.65;;;;;;;25.98;70.86;100662.69;5325517;33;34285;-85
2022/06/28 09:32:53;;;;;;;3.83;2.30;;;;;;;26.11;71.91;100656.63;5323988;33;35629;-85
2022/06/28 09:35:56;;;;;;;2.30;2.05;;;;;;;26.16;70.43;100659.38;5324829;33;35008;-85
2022/06/28 09:39:10;;;;;;;3.62;2.20;;;;;;;26.22;72.66;100663.81;5311684;33;33763;-85
2022/06/28 09:42:13;;;;;;;3.47;2.30;;;;;;;26.34;71.22;100660.78;5319482;33;34356;-85
2022/06/28 09:45:19;;;;;;;2.30;2.10;;;;;;;26.49;69.40;100654.41;5325019;33;36084;-89
2022/06/28 09:48:22;;;;;;;2.03;1.92;;;;;;;26.56;69.55;100666.06;5320481;33;34331;-89
2022/06/28 09:51:27;;;;;;;4.18;2.30;;;;;;;26.73;67.58;100662.97;5309151;33;33753;-89
2022/06/28 09:54:30;;;;;;;2.78;2.30;;;;;;;26.75;66.72;100662.72;5311172;33;35456;-86
2022/06/28 09:57:34;;;;;;;3.03;2.35;;;;;;;27.08;68.50;100661.22;5293318;33;32154;-86
2022/06/28 10:00:41;;;;;;;5.10;2.72;;;;;;;27.51;66.92;100664.44;5311375;33;33999;-86
2022/06/28 10:03:44;;;;;;;2.87;2.67;;;;;;;27.65;63.85;100659.09;5303183;33;34145;-87
2022/06/28 10:06:52;;;;;;;2.90;2.50;;;;;;;27.68;63.24;100662.12;5293003;33;33457;-86
2022/06/28 10:09:55;;;;;;;8.02;3.00;;;;;;;28.05;63.21;100669.09;5319232;33;33841;-86
2022/06/28 10:17:04;;;;;;;5.37;2.33;;;;;;;28.56;63.47;100656.84;5227921;33;35430;-85
2022/06/28 10:20:10;;;;;;;4.05;2.60;;;;;;;29.04;61.94;100652.19;5312448;33;33920;-85
2022/06/28 10:23:38;;;;;;;3.30;2.40;;;;;;;29.09;58.98;100649.34;5318391;33;34246;-86
2022/06/28 10:27:13;;;;;;;3.05;2.75;;;;;;;29.48;60.65;100639.16;5315212;33;33351;-85
2022/06/28 10:30:17;;;;;;;3.50;3.12;;;;;;;29.72;58.38;100642.75;5320842;33;34201;-91
2022/06/28 10:33:40;;;;;;;3.17;2.58;;;;;;;30.06;56.80;100642.50;5317104;33;32438;-86
2022/06/28 10:36:55;;;;;;;4.45;2.72;;;;;;;30.55;56.24;100634.75;5314382;33;33922;-86
2022/06/28 10:40:22;;;;;;;3.15;2.37;;;;;;;30.68;56.13;100633.97;5313627;33;34424;-84
2022/06/28 10:43:25;;;;;;;2.50;2.30;;;;;;;31.00;55.06;100634.22;5292931;33;32196;-83
2022/06/28 10:46:29;;;;;;;2.83;2.50;;;;;;;30.73;53.25;100630.25;5318493;28;34771;-84
2022/06/28 10:49:52;;;;;;;4.37;2.47;;;;;;;31.08;53.50;100623.19;5316004;33;33996;-85
2022/06/28 10:53:01;;;;;;;3.20;2.72;;;;;;;30.92;52.64;100621.88;5319958;33;33635;-84
2022/06/28 10:56:10;;;;;;;3.28;2.95;;;;;;;31.23;51.97;100621.22;5313159;33;33534;-83
2022/06/28 10:59:35;;;;;;;7.37;2.67;;;;;;;32.17;49.34;100614.91;5323458;33;34041;-82
2022/06/28 11:02:58;;;;;;;4.55;2.80;;;;;;;32.65;49.30;100619.03;5320341;33;33793;-84
2022/06/28 11:06:02;;;;;;;4.75;3.00;;;;;;;32.65;47.55;100605.91;5318883;33;35211;-84
2022/06/28 11:09:10;;;;;;;5.30;2.70;;;;;;;32.74;47.74;100608.72;5341537;28;34348;-82
2022/06/28 11:12:17;;;;;;;2.60;2.40;;;;;;;33.02;46.92;100600.97;5327141;33;34149;-81
2022/06/28 11:15:29;;;;;;;3.10;2.80;;;;;;;33.58;47.45;100606.84;5313946;33;32202;-82
2022/06/28 11:18:33;;;;;;;2.90;2.60;;;;;;;33.76;45.61;100602.94;5327426;33;34309;-83
2022/06/28 11:21:36;;;;;;;4.03;2.90;;;;;;;34.02;44.17;100599.28;5327245;33;35094;-82
2022/06/28 11:24:43;;;;;;;3.12;2.55;;;;;;;34.37;43.95;100602.87;5326376;33;34942;-82
2022/06/28 11:27:51;;;;;;;3.92;2.60;;;;;;;34.41;42.48;100591.84;5326554;33;34048;-83
2022/06/28 11:30:54;;;;;;;;;;;;;;;34.80;41.99;100585.13;5308105;33;33952;-82
2022/06/28 11:33:58;;;;;;;5.60;2.28;;;;;;;36.17;38.67;100588.47;5326733;33;34812;-83
2022/06/28 11:37:01;;;;;;;3.78;2.33;;;;;;;36.87;35.89;100583.69;5326569;33;34476;-82
2022/06/28 11:40:04;;;;;;;2.92;2.37;;;;;;;36.70;37.04;100583.94;5326463;33;35559;-83
2022/06/28 11:43:08;;;;;;;5.90;2.45;;;;;;;37.06;35.77;100574.69;5326397;33;33864;-82
2022/06/28 11:46:11;;;;;;;2.30;2.20;;;;;;;37.29;34.58;100574.19;5326387;33;34853;-82
2022/06/28 11:49:27;;;;;;;2.40;2.20;;;;;;;37.81;34.91;100562.13;5312524;33;33346;-83
2022/06/28 11:52:30;;;;;;;3.53;1.93;;;;;;;38.10;34.71;100558.16;5313145;33;33956;-83
2022/06/28 11:55:42;;;;;;;2.20;2.10;;;;;;;38.33;33.75;100555.56;5326956;33;34428;-83
2022/06/28 11:58:45;;;;;;;2.47;2.28;;;;;;;38.94;31.88;100549.50;5326331;33;34065;-82
2022/06/28 12:01:48;;;;;;;2.35;2.15;;;;;;;39.34;32.07;100545.56;5326553;33;34019;-83
2022/06/28 12:05:00;;;;;;;2.10;2.00;;;;;;;40.49;29.66;100542.22;5326386;33;34553;-82
2022/06/28 12:08:03;;;;;;;2.17;2.03;;;;;;;41.01;29.37;100538.63;5326605;33;34370;-83
2022/06/28 12:11:06;;;;;;;3.15;2.22;;;;;;;40.73;28.97;100546.66;5324392;33;34879;-83
2022/06/28 12:14:15;;;;;;;3.75;1.90;;;;;;;40.95;28.34;100534.50;5322059;33;34881;-84
2022/06/28 12:17:18;;;;;;;1.92;1.83;;;;;;;40.59;28.56;100530.25;5318320;33;35285;-88
2022/06/28 12:20:21;;;;;;;3.87;1.85;;;;;;;41.11;27.81;100528.69;5322459;33;33966;-88
2022/06/28 12:23:24;;;;;;;3.08;1.95;;;;;;;41.42;27.35;100521.00;5321566;33;34021;-83
2022/06/28 12:26:41;;;;;;;2.12;1.92;;;;;;;41.99;26.00;100521.72;5328201;33;34161;-83
2022/06/28 12:29:45;;;;;;;1.80;1.70;;;;;;;42.36;25.89;100509.56;5325621;33;33667;-82
2022/06/28 12:32:48;;;;;;;2.30;1.80;;;;;;;42.54;25.05;100509.72;5325457;33;34355;-82
2022/06/28 12:35:51;;;;;;;1.62;1.52;;;;;;;42.89;25.35;100506.34;5325269;33;34123;-83
2022/06/28 12:38:54;;;;;;;2.90;1.50;;;;;;;43.54;24.04;100503.84;5321998;33;33913;-82
2022/06/28 12:41:57;;;;;;;3.33;1.67;;;;;;;43.53;23.13;100510.69;5312899;33;34514;-82
2022/06/28 12:45:00;;;;;;;1.75;1.60;;;;;;;43.55;23.10;100503.44;5317563;33;34819;-83
2022/06/28 12:48:04;;;;;;;1.50;1.40;;;;;;;43.52;22.34;100504.19;5320412;33;33420;-82
2022/06/28 12:51:06;;;;;;;2.47;1.83;;;;;;;43.28;22.58;100496.44;5321130;33;34677;-83
2022/06/28 12:54:09;;;;;;;1.70;1.35;;;;;;;43.08;23.28;100496.72;5326619;33;34065;-83
2022/06/28 12:57:12;;;;;;;4.93;1.80;;;;;;;43.94;22.60;100487.75;5307558;33;33407;-84
2022/06/28 13:00:15;;;;;;;1.80;1.70;;;;;;;44.91;21.79;100485.72;5324659;33;32735;-83
2022/06/28 13:03:23;;;;;;;4.10;1.42;;;;;;;44.55;21.70;100488.56;5331033;33;34383;-83
2022/06/28 13:06:26;;;;;;;3.70;1.60;;;;;;;44.44;21.35;100482.94;5321585;33;33356;-83
2022/06/28 13:09:30;;;;;;;3.12;1.80;;;;;;;44.84;20.64;100482.88;5327511;33;148934;-83
2022/06/28 13:12:33;;;;;;;4.85;1.92;;;;;;;44.98;20.80;100475.09;5308993;33;33686;-83
2022/06/28 13:15:36;;;;;;;1.90;1.67;;;;;;;44.70;20.92;100478.00;5315352;33;34257;-83
2022/06/28 13:18:39;;;;;;;1.70;1.60;;;;;;;44.10;21.05;100471.16;5310988;33;33846;-83
2022/06/28 13:21:47;;;;;;;2.08;1.60;;;;;;;44.07;21.15;100463.44;5322059;33;34032;-83
2022/06/28 13:24:50;;;;;;;3.60;1.75;;;;;;;45.35;20.74;100455.91;5326760;33;33862;-83
2022/06/28 13:27:53;;;;;;;1.77;1.67;;;;;;;46.04;18.58;100466.44;5319977;33;34238;-83
2022/06/28 13:30:56;;;;;;;1.55;1.45;;;;;;;45.80;19.01;100461.75;5326722;33;33994;-82
2022/06/28 13:33:58;;;;;;;1.65;1.55;;;;;;;46.46;18.28;100449.44;5307952;33;34553;-83
2022/06/28 13:37:02;;;;;;;3.12;1.50;;;;;;;46.13;18.58;100454.59;5307782;33;32955;-83
2022/06/28 13:40:06;;;;;;;3.00;1.52;;;;;;;45.38;18.83;100440.87;5325739;33;34335;-83
2022/06/28 13:46:30;;;;;;;6.55;1.87;;;;;;;45.33;19.42;100439.25;5325748;33;34598;-83
2022/06/28 13:49:33;;;;;;;1.90;1.40;;;;;;;45.20;19.63;100440.97;5325971;33;33407;-83
2022/06/28 13:52:42;;;;;;;1.35;1.30;;;;;;;45.48;19.30;100440.78;5324389;33;32604;-83
2022/06/28 13:55:47;;;;;;;1.67;1.58;;;;;;;44.04;19.94;100431.00;5311981;33;33703;-83
2022/06/28 13:58:50;;;;;;;2.55;1.37;;;;;;;44.71;19.28;100434.19;5309625;33;32744;-87
2022/06/28 14:01:53;;;;;;;1.48;1.30;;;;;;;44.80;19.24;100429.72;5318874;33;34425;-87
2022/06/28 14:04:55;;;;;;;2.83;1.55;;;;;;;43.50;20.80;100426.44;5308084;33;35251;-86
2022/06/28 14:07:58;;;;;;;4.78;1.92;;;;;;;41.85;22.57;100416.91;5318067;33;34321;-87
2022/06/28 14:11:02;;;;;;;1.95;1.50;;;;;;;39.89;25.73;100413.00;5324856;33;33906;-83
2022/06/28 14:14:04;;;;;;;2.00;1.80;;;;;;;39.30;26.44;100423.56;5311330;33;32219;-83
2022/06/28 14:17:07;;;;;;;1.80;1.62;;;;;;;38.65;26.46;100421.31;5325539;33;34859;-83
2022/06/28 14:20:13;;;;;;;3.53;1.50;;;;;;;38.15;26.44;100410.88;5329658;33;34772;-84
2022/06/28 14:23:16;;;;;;;3.17;1.70;;;;;;;37.52;27.31;100406.78;5329528;33;34771;-86
2022/06/28 14:26:21;;;;;;;1.80;1.70;;;;;;;37.21;28.41;100405.53;5327142;33;34146;-86
2022/06/28 14:29:28;;;;;;;2.15;1.60;;;;;;;36.63;28.88;100404.16;5321573;33;34060;-86
2022/06/28 14:32:31;;;;;;;1.90;1.77;;;;;;;36.07;28.88;100397.16;5316839;33;34714;-86
2022/06/28 14:35:35;;;;;;;1.67;1.58;;;;;;;35.82;28.88;100390.69;5327312;33;34266;-87
2022/06/28 14:38:52;;;;;;;4.12;2.05;;;;;;;35.79;29.23;100391.38;5331530;33;33988;-86
2022/06/28 14:41:55;;;;;;;3.12;1.92;;;;;;;35.47;29.81;100393.03;5326138;33;34048;-86
2022/06/28 14:44:57;;;;;;;1.65;1.55;;;;;;;35.31;30.30;100389.25;5325823;33;35177;-86
2022/06/28 14:48:00;;;;;;;2.47;1.80;;;;;;;35.16;31.37;100379.50;5321957;33;32357;-86
2022/06/28 14:51:03;;;;;;;2.22;1.92;;;;;;;35.01;31.83;100382.91;5306894;33;33413;-86
2022/06/28 14:54:06;;;;;;;2.60;2.22;;;;;;;34.66;32.07;100372.84;5310990;33;34180;-85
2022/06/28 14:57:08;;;;;;;3.20;2.12;;;;;;;34.87;31.51;100381.22;5322265;33;34189;-86
2022/06/28 15:00:13;;;;;;;3.08;1.80;;;;;;;34.81;32.11;100371.41;5319494;33;34489;-85
2022/06/28 15:03:15;;;;;;;2.85;2.20;;;;;;;34.69;32.20;100374.94;5317442;33;34268;-85
2022/06/28 15:06:20;;;;;;;3.03;2.35;;;;;;;34.54;31.97;100372.69;5326993;33;33781;-86
2022/06/28 15:09:23;;;;;;;4.90;2.22;;;;;;;34.60;31.97;100376.16;5324802;33;33925;-85
2022/06/28 15:12:26;;;;;;;2.20;2.00;;;;;;;34.39;32.41;100365.72;5304882;33;32988;-86
2022/06/28 15:15:29;;;;;;;2.65;2.25;;;;;;;34.33;32.42;100369.88;5323321;33;34008;-86
2022/06/28 15:18:33;;;;;;;4.80;1.85;;;;;;;34.09;32.67;100374.12;5325676;33;34824;-86
2022/06/28 15:31:48;;;;;;;3.03;2.00;;;;;;;33.35;33.87;100354.97;5319869;33;34039;-86
2022/06/28 15:34:50;;;;;;;2.30;2.03;;;;;;;33.29;35.08;100357.12;5324799;33;33700;-86
2022/06/28 15:37:54;;;;;;;3.15;2.25;;;;;;;33.23;34.43;100365.97;5316339;33;34492;-86
2022/06/28 15:40:56;;;;;;;2.37;2.00;;;;;;;33.06;35.38;100359.28;5311641;33;33270;-86
2022/06/28 15:43:59;;;;;;;8.93;2.60;;;;;;;32.89;34.91;100360.06;5313473;33;32657;-86
2022/06/28 15:47:02;;;;;;;2.53;1.95;;;;;;;32.83;34.95;100355.81;5324342;33;34225;-85
2022/06/28 15:50:06;;;;;;;3.12;2.25;;;;;;;32.72;35.32;100354.50;5312682;33;33255;-85
2022/06/28 15:53:08;;;;;;;4.35;2.30;;;;;;;32.61;35.40;100356.75;5315063;33;33553;-86
2022/06/28 15:56:11;;;;;;;3.08;2.10;;;;;;;32.55;36.69;100360.06;5317771;33;32502;-87
2022/06/28 15:59:14;;;;;;;3.60;2.03;;;;;;;32.50;36.19;100361.84;5325160;33;34060;-86
2022/06/28 16:02:17;;;;;;;3.53;2.20;;;;;;;32.42;36.30;100362.63;5317739;33;34200;-87
